createdAt,value
2023-05-20T00:00:20.412Z,80.18
2023-05-20T00:01:22.963Z,80.14
2023-05-20T00:02:25.276Z,79.82
2023-05-20T00:03:29.049Z,79.49
2023-05-20T00:04:32.770Z,79.35
2023-05-20T00:05:35.326Z,79.32
2023-05-20T00:06:37.480Z,79.46
2023-05-20T00:07:39.545Z,79.58
2023-05-20T00:08:42.202Z,79.78
2023-05-20T00:09:44.726Z,79.51
2023-05-20T00:10:46.879Z,79.51
2023-05-20T00:11:49.046Z,79.33
2023-05-20T00:12:51.218Z,79.54
2023-05-20T00:13:53.284Z,79.49
2023-05-20T00:14:56.150Z,79.86
2023-05-20T00:15:58.554Z,79.96
2023-05-20T00:17:02.046Z,79.84
2023-05-20T00:18:04.564Z,79.70
2023-05-20T00:19:07.006Z,79.59
2023-05-20T00:20:11.085Z,79.15
2023-05-20T00:21:13.451Z,78.98
2023-05-20T00:22:15.714Z,79.22
2023-05-20T00:23:17.973Z,79.31
2023-05-20T00:24:20.264Z,79.02
2023-05-20T00:25:22.518Z,78.98
2023-05-20T00:26:26.758Z,79.04
2023-05-20T00:27:30.164Z,79.03
2023-05-20T00:28:32.305Z,79.35
2023-05-20T00:29:34.979Z,79.57
2023-05-20T00:30:40.681Z,79.71
2023-05-20T00:31:42.917Z,79.91
2023-05-20T00:32:45.195Z,79.83
2023-05-20T00:33:47.514Z,79.62
2023-05-20T00:34:59.423Z,79.82
2023-05-20T00:36:02.317Z,79.79
2023-05-20T00:37:05.612Z,79.69
2023-05-20T00:38:08.053Z,79.98
2023-05-20T00:39:10.637Z,80.15
2023-05-20T00:40:15.606Z,80.10
2023-05-20T00:41:18.638Z,80.43
2023-05-20T00:42:22.063Z,80.49
2023-05-20T00:43:26.033Z,80.52
2023-05-20T00:44:29.102Z,80.58
2023-05-20T00:45:32.430Z,80.35
2023-05-20T00:46:36.190Z,80.55
2023-05-20T00:47:38.889Z,80.97
2023-05-20T00:48:44.020Z,80.99
2023-05-20T00:49:50.339Z,80.78
2023-05-20T00:50:53.961Z,80.84
2023-05-20T00:51:56.405Z,80.60
2023-05-20T00:52:59.066Z,80.16
2023-05-20T00:54:01.621Z,79.50
2023-05-20T00:55:04.180Z,79.47
2023-05-20T00:56:08.550Z,79.19
2023-05-20T00:57:11.738Z,79.10
2023-05-20T00:58:14.210Z,79.49
2023-05-20T00:59:16.691Z,79.47
2023-05-20T01:00:20.023Z,79.26
2023-05-20T01:01:22.881Z,78.80
2023-05-20T01:02:26.007Z,78.43
2023-05-20T01:03:29.803Z,78.75
2023-05-20T01:04:33.437Z,79.05
2023-05-20T01:05:36.010Z,78.89
2023-05-20T01:06:38.815Z,78.91
2023-05-20T01:07:42.088Z,79.39
2023-05-20T01:08:44.508Z,79.31
2023-05-20T01:09:47.321Z,79.09
2023-05-20T01:10:53.292Z,79.10
2023-05-20T01:12:05.881Z,79.68
2023-05-20T01:13:14.673Z,79.93
2023-05-20T01:14:19.709Z,80.16
2023-05-20T01:15:25.491Z,80.52
2023-05-20T01:16:28.918Z,80.55
2023-05-20T01:17:33.372Z,80.27
2023-05-20T01:18:41.362Z,80.01
2023-05-20T01:19:45.813Z,80.19
2023-05-20T01:20:49.761Z,80.37
2023-05-20T01:21:53.668Z,80.43
2023-05-20T01:22:56.972Z,80.68
2023-05-20T01:24:01.131Z,80.10
2023-05-20T01:25:04.755Z,80.10
2023-05-20T01:26:08.506Z,80.62
2023-05-20T01:27:12.906Z,80.08
2023-05-20T01:28:17.395Z,80.08
2023-05-20T01:29:19.616Z,79.89
2023-05-20T01:30:22.273Z,79.62
2023-05-20T01:31:28.099Z,79.59
2023-05-20T01:32:40.614Z,79.37
2023-05-20T01:33:44.557Z,79.91
2023-05-20T01:34:49.858Z,80.52
2023-05-20T01:35:52.733Z,80.53
2023-05-20T01:36:55.856Z,80.38
2023-05-20T01:38:00.187Z,80.56
2023-05-20T01:39:03.273Z,80.36
2023-05-20T01:40:08.340Z,80.14
2023-05-20T01:41:11.809Z,80.20
2023-05-20T01:42:15.712Z,79.93
2023-05-20T01:43:18.318Z,79.60
2023-05-20T01:44:21.059Z,79.89
2023-05-20T01:45:25.086Z,80.14
2023-05-20T01:46:27.595Z,80.28
2023-05-20T01:47:30.661Z,80.15
2023-05-20T01:48:34.541Z,80.03
2023-05-20T01:49:36.842Z,79.95
2023-05-20T01:50:39.468Z,79.50
2023-05-20T01:51:41.875Z,79.32
2023-05-20T01:52:45.615Z,79.11
2023-05-20T01:53:49.205Z,78.91
2023-05-20T01:54:53.969Z,78.93
2023-05-20T01:55:56.961Z,78.83
2023-05-20T01:56:59.874Z,79.19
2023-05-20T01:58:02.822Z,79.30
2023-05-20T01:59:05.544Z,79.31
2023-05-20T02:00:09.179Z,79.25
2023-05-20T02:01:13.528Z,79.17
2023-05-20T02:02:17.867Z,79.15
2023-05-20T02:03:20.332Z,79.30
2023-05-20T02:04:22.779Z,79.48
2023-05-20T02:05:25.370Z,79.68
2023-05-20T02:06:27.712Z,79.75
2023-05-20T02:07:30.637Z,79.43
2023-05-20T02:08:32.894Z,79.44
2023-05-20T02:09:35.289Z,79.55
2023-05-20T02:10:37.533Z,79.42
2023-05-20T02:11:40.293Z,79.47
2023-05-20T02:12:43.171Z,79.60
2023-05-20T02:13:45.515Z,79.75
2023-05-20T02:14:49.792Z,79.85
2023-05-20T02:15:52.247Z,79.77
2023-05-20T02:16:54.974Z,79.89
2023-05-20T02:17:57.654Z,79.69
2023-05-20T02:19:01.935Z,79.38
2023-05-20T02:20:07.131Z,78.97
2023-05-20T02:21:09.763Z,78.70
2023-05-20T02:22:14.204Z,78.33
2023-05-20T02:23:18.724Z,78.05
2023-05-20T02:24:20.951Z,77.77
2023-05-20T02:25:23.311Z,78.21
2023-05-20T02:26:25.821Z,78.25
2023-05-20T02:27:28.176Z,78.21
2023-05-20T02:28:30.524Z,78.05
2023-05-20T02:29:32.770Z,77.71
2023-05-20T02:30:35.228Z,77.77
2023-05-20T02:31:38.118Z,77.80
2023-05-20T02:32:40.217Z,77.99
2023-05-20T02:33:42.480Z,77.76
2023-05-20T02:34:45.438Z,77.54
2023-05-20T02:35:47.701Z,77.42
2023-05-20T02:36:51.274Z,77.37
2023-05-20T02:37:53.610Z,78.49
2023-05-20T02:38:56.259Z,78.52
2023-05-20T02:39:58.650Z,78.54
2023-05-20T02:41:02.079Z,78.50
2023-05-20T02:42:05.178Z,78.57
2023-05-20T02:43:07.609Z,78.64
2023-05-20T02:44:10.329Z,78.36
2023-05-20T02:45:12.580Z,78.08
2023-05-20T02:46:17.092Z,78.14
2023-05-20T02:47:19.549Z,78.10
2023-05-20T02:48:23.107Z,78.08
2023-05-20T02:49:26.177Z,77.80
2023-05-20T02:50:28.481Z,77.81
2023-05-20T02:51:33.785Z,77.76
2023-05-20T02:52:36.509Z,77.85
2023-05-20T02:53:39.617Z,77.94
2023-05-20T02:54:41.957Z,78.44
2023-05-20T02:55:47.382Z,78.85
2023-05-20T02:56:49.765Z,79.02
2023-05-20T02:57:51.994Z,79.40
2023-05-20T02:58:56.308Z,79.56
2023-05-20T02:59:58.984Z,79.62
2023-05-20T03:01:02.041Z,79.51
2023-05-20T03:02:06.298Z,79.49
2023-05-20T03:03:10.339Z,79.29
2023-05-20T03:04:12.787Z,79.29
2023-05-20T03:05:15.102Z,79.15
2023-05-20T03:06:18.002Z,78.89
2023-05-20T03:07:21.164Z,78.66
2023-05-20T03:08:25.240Z,78.58
2023-05-20T03:09:27.557Z,79.16
2023-05-20T03:10:29.814Z,79.43
2023-05-20T03:11:31.981Z,79.49
2023-05-20T03:12:34.390Z,79.65
2023-05-20T03:13:36.842Z,79.77
2023-05-20T03:14:39.081Z,80.04
2023-05-20T03:15:47.052Z,80.27
2023-05-20T03:16:49.525Z,80.41
2023-05-20T03:17:51.699Z,80.27
2023-05-20T03:18:54.246Z,80.32
2023-05-20T03:19:56.670Z,80.04
2023-05-20T03:20:58.900Z,80.35
2023-05-20T03:22:01.656Z,80.73
2023-05-20T03:23:07.513Z,80.75
2023-05-20T03:24:11.007Z,81.22
2023-05-20T03:25:13.786Z,81.35
2023-05-20T03:26:16.427Z,80.95
2023-05-20T03:27:18.773Z,80.70
2023-05-20T03:28:21.115Z,80.45
2023-05-20T03:29:23.448Z,80.37
2023-05-20T03:30:27.007Z,80.41
2023-05-20T03:31:30.814Z,80.40
2023-05-20T03:32:33.062Z,80.50
2023-05-20T03:33:35.489Z,80.78
2023-05-20T03:34:38.535Z,80.63
2023-05-20T03:35:43.605Z,80.74
2023-05-20T03:36:45.958Z,80.67
2023-05-20T03:37:48.222Z,80.69
2023-05-20T03:38:50.788Z,80.69
2023-05-20T03:39:53.168Z,80.86
2023-05-20T03:40:56.435Z,81.00
2023-05-20T03:41:59.717Z,80.69
2023-05-20T03:43:02.137Z,80.49
2023-05-20T03:44:05.287Z,80.45
2023-05-20T03:45:08.765Z,80.89
2023-05-20T03:46:14.445Z,80.82
2023-05-20T03:47:17.278Z,80.92
2023-05-20T03:48:20.022Z,80.73
2023-05-20T03:49:22.574Z,80.75
2023-05-20T03:50:25.498Z,80.76
2023-05-20T03:51:28.059Z,80.88
2023-05-20T03:52:32.421Z,80.94
2023-05-20T03:53:35.032Z,80.54
2023-05-20T03:54:37.309Z,80.54
2023-05-20T03:55:40.247Z,80.51
2023-05-20T03:56:42.926Z,80.74
2023-05-20T03:57:45.577Z,81.06
2023-05-20T03:58:47.846Z,81.02
2023-05-20T03:59:50.823Z,81.06
2023-05-20T04:00:53.342Z,80.96
2023-05-20T04:01:57.736Z,80.76
2023-05-20T04:03:00.737Z,80.80
2023-05-20T04:04:03.800Z,80.73
2023-05-20T04:05:08.499Z,80.56
2023-05-20T04:06:11.481Z,80.37
2023-05-20T04:07:13.752Z,80.02
2023-05-20T04:08:18.108Z,79.77
2023-05-20T04:09:20.913Z,79.51
2023-05-20T04:10:24.626Z,79.34
2023-05-20T04:11:26.983Z,79.64
2023-05-20T04:12:31.385Z,79.77
2023-05-20T04:13:34.110Z,79.57
2023-05-20T04:14:36.411Z,79.33
2023-05-20T04:15:38.883Z,79.65
2023-05-20T04:16:41.266Z,79.73
2023-05-20T04:17:45.506Z,79.50
2023-05-20T04:18:48.583Z,79.66
2023-05-20T04:19:50.856Z,79.57
2023-05-20T04:20:56.255Z,79.15
2023-05-20T04:21:58.460Z,78.93
2023-05-20T04:23:01.020Z,78.80
2023-05-20T04:24:03.516Z,78.93
2023-05-20T04:25:07.173Z,79.39
2023-05-20T04:26:09.979Z,79.39
2023-05-20T04:27:13.430Z,79.39
2023-05-20T04:28:15.842Z,78.79
2023-05-20T04:29:18.596Z,78.69
2023-05-20T04:30:21.481Z,78.92
2023-05-20T04:31:27.851Z,78.96
2023-05-20T04:32:30.316Z,79.10
2023-05-20T04:33:35.773Z,79.00
2023-05-20T04:34:38.628Z,79.01
2023-05-20T04:35:42.324Z,78.70
2023-05-20T04:36:45.655Z,78.76
2023-05-20T04:37:48.248Z,78.29
2023-05-20T04:38:51.455Z,78.34
2023-05-20T04:39:54.753Z,78.74
2023-05-20T04:40:57.667Z,78.65
2023-05-20T04:42:00.145Z,78.48
2023-05-20T04:43:03.918Z,77.99
2023-05-20T04:44:06.796Z,77.74
2023-05-20T04:45:10.210Z,77.81
2023-05-20T04:46:13.668Z,77.69
2023-05-20T04:47:16.327Z,77.49
2023-05-20T04:48:20.394Z,77.15
2023-05-20T04:49:24.992Z,76.56
2023-05-20T04:50:28.011Z,76.21
2023-05-20T04:51:30.451Z,76.13
2023-05-20T04:52:32.669Z,75.89
2023-05-20T04:53:36.713Z,75.74
2023-05-20T04:54:39.819Z,75.42
2023-05-20T04:55:43.209Z,75.42
2023-05-20T04:56:46.678Z,74.79
2023-05-20T04:57:49.251Z,74.79
2023-05-20T04:58:52.204Z,74.34
2023-05-20T04:59:56.705Z,74.09
2023-05-20T05:00:59.109Z,73.76
2023-05-20T05:02:02.831Z,73.61
2023-05-20T05:03:07.084Z,73.39
2023-05-20T05:04:09.532Z,73.33
2023-05-20T05:05:12.055Z,73.28
2023-05-20T05:06:15.200Z,73.27
2023-05-20T05:07:17.391Z,73.38
2023-05-20T05:08:19.864Z,73.25
2023-05-20T05:09:24.361Z,73.07
2023-05-20T05:10:28.076Z,72.84
2023-05-20T05:11:30.833Z,72.49
2023-05-20T05:12:33.368Z,72.67
2023-05-20T05:13:35.796Z,72.37
2023-05-20T05:14:38.020Z,72.53
2023-05-20T05:15:40.483Z,72.67
2023-05-20T05:16:43.285Z,72.71
2023-05-20T05:17:46.669Z,72.52
2023-05-20T05:18:49.893Z,72.53
2023-05-20T05:19:52.469Z,72.30
2023-05-20T05:21:05.039Z,72.03
2023-05-20T05:22:08.668Z,71.85
2023-05-20T05:23:12.317Z,71.79
2023-05-20T05:24:14.632Z,71.25
2023-05-20T05:25:16.889Z,71.05
2023-05-20T05:26:19.237Z,71.00
2023-05-20T05:27:22.438Z,71.25
2023-05-20T05:28:25.715Z,71.16
2023-05-20T05:29:28.064Z,71.27
2023-05-20T05:30:30.537Z,71.24
2023-05-20T05:31:33.189Z,70.61
2023-05-20T05:32:38.625Z,70.60
2023-05-20T05:33:41.702Z,70.31
2023-05-20T05:34:45.776Z,70.22
2023-05-20T05:35:48.498Z,70.25
2023-05-20T05:36:50.942Z,70.52
2023-05-20T05:37:54.900Z,70.26
2023-05-20T05:38:57.686Z,69.77
2023-05-20T05:40:01.039Z,68.99
2023-05-20T05:41:03.845Z,68.76
2023-05-20T05:42:06.369Z,68.73
2023-05-20T05:43:08.790Z,68.92
2023-05-20T05:44:11.368Z,69.31
2023-05-20T05:45:14.378Z,69.25
2023-05-20T05:46:17.269Z,69.21
2023-05-20T05:47:19.487Z,69.11
2023-05-20T05:48:22.798Z,69.30
2023-05-20T05:49:25.100Z,69.51
2023-05-20T05:50:29.022Z,69.49
2023-05-20T05:51:31.564Z,69.57
2023-05-20T05:52:35.007Z,69.45
2023-05-20T05:53:37.691Z,69.44
2023-05-20T05:54:40.332Z,69.28
2023-05-20T05:55:42.681Z,69.13
2023-05-20T05:56:45.151Z,69.06
2023-05-20T05:57:47.914Z,69.13
2023-05-20T05:58:50.854Z,69.09
2023-05-20T05:59:53.186Z,68.87
2023-05-20T06:00:56.038Z,68.34
2023-05-20T06:01:58.460Z,68.13
2023-05-20T06:03:00.979Z,68.28
2023-05-20T06:04:05.553Z,68.42
2023-05-20T06:05:09.818Z,68.10
2023-05-20T06:06:12.426Z,67.77
2023-05-20T06:07:14.785Z,67.39
2023-05-20T06:08:17.055Z,67.06
2023-05-20T06:09:20.989Z,66.57
2023-05-20T06:10:23.574Z,66.18
2023-05-20T06:11:25.914Z,66.27
2023-05-20T06:12:28.145Z,66.45
2023-05-20T06:13:32.782Z,65.99
2023-05-20T06:14:36.171Z,65.72
2023-05-20T06:15:40.438Z,65.67
2023-05-20T06:16:43.382Z,65.71
2023-05-20T06:17:45.921Z,65.92
2023-05-20T06:18:50.225Z,65.78
2023-05-20T06:19:54.608Z,65.48
2023-05-20T06:20:59.119Z,65.78
2023-05-20T06:22:01.799Z,65.39
2023-05-20T06:23:04.361Z,65.21
2023-05-20T06:24:08.965Z,65.00
2023-05-20T06:25:12.857Z,64.99
2023-05-20T06:26:16.065Z,65.17
2023-05-20T06:27:18.214Z,64.79
2023-05-20T06:28:20.772Z,64.45
2023-05-20T06:29:23.744Z,64.54
2023-05-20T06:30:26.136Z,64.85
2023-05-20T06:31:30.348Z,64.03
2023-05-20T06:32:33.066Z,63.89
2023-05-20T06:33:36.176Z,64.02
2023-05-20T06:34:40.475Z,63.63
2023-05-20T06:35:44.138Z,63.66
2023-05-20T06:36:47.038Z,63.81
2023-05-20T06:37:50.349Z,63.31
2023-05-20T06:38:52.759Z,63.30
2023-05-20T06:39:56.004Z,63.18
2023-05-20T06:40:58.576Z,63.13
2023-05-20T06:42:00.908Z,62.55
2023-05-20T06:43:05.110Z,62.74
2023-05-20T06:44:21.176Z,62.70
2023-05-20T06:45:31.527Z,62.69
2023-05-20T06:46:35.801Z,62.53
2023-05-20T06:47:41.092Z,61.77
2023-05-20T06:48:44.360Z,61.35
2023-05-20T06:49:47.772Z,61.44
2023-05-20T06:50:51.640Z,61.40
2023-05-20T06:51:54.222Z,61.48
2023-05-20T06:52:56.785Z,61.38
2023-05-20T06:53:59.056Z,60.86
2023-05-20T06:55:01.696Z,60.67
2023-05-20T06:56:04.479Z,59.99
2023-05-20T06:57:08.476Z,60.03
2023-05-20T06:58:11.933Z,59.91
2023-05-20T06:59:14.960Z,59.73
2023-05-20T07:00:18.805Z,59.84
2023-05-20T07:01:21.478Z,60.01
2023-05-20T07:02:25.178Z,59.55
2023-05-20T07:03:28.562Z,59.36
2023-05-20T07:04:31.816Z,59.04
2023-05-20T07:05:35.215Z,59.32
2023-05-20T07:06:37.864Z,59.48
2023-05-20T07:07:40.315Z,59.52
2023-05-20T07:08:43.638Z,59.68
2023-05-20T07:09:46.624Z,59.29
2023-05-20T07:10:49.219Z,58.73
2023-05-20T07:11:53.425Z,58.61
2023-05-20T07:12:57.258Z,58.37
2023-05-20T07:14:00.691Z,58.43
2023-05-20T07:15:06.792Z,58.07
2023-05-20T07:16:09.727Z,57.30
2023-05-20T07:17:13.669Z,57.02
2023-05-20T07:18:17.178Z,56.02
2023-05-20T07:19:21.656Z,56.41
2023-05-20T07:20:24.013Z,57.01
2023-05-20T07:21:26.742Z,56.82
2023-05-20T07:23:56.135Z,56.46
2023-05-20T07:24:59.768Z,56.30
2023-05-20T07:26:02.710Z,55.92
2023-05-20T07:27:05.406Z,55.16
2023-05-20T07:28:07.951Z,54.32
2023-05-20T07:29:10.732Z,54.94
2023-05-20T07:30:14.627Z,54.45
2023-05-20T07:31:18.795Z,54.18
2023-05-20T07:32:21.719Z,54.27
2023-05-20T07:33:24.176Z,53.61
2023-05-20T07:34:27.494Z,52.96
2023-05-20T07:35:30.362Z,52.64
2023-05-20T07:36:32.884Z,53.05
2023-05-20T07:37:36.989Z,53.23
2023-05-20T07:38:41.037Z,53.18
2023-05-20T07:39:44.385Z,53.25
2023-05-20T07:40:47.058Z,53.17
2023-05-20T07:41:50.653Z,53.27
2023-05-20T07:42:53.093Z,52.73
2023-05-20T07:43:55.557Z,52.71
2023-05-20T07:44:57.686Z,51.95
2023-05-20T07:46:00.787Z,51.87
2023-05-20T07:47:03.482Z,50.95
2023-05-20T07:48:07.861Z,51.04
2023-05-20T07:49:11.666Z,50.36
2023-05-20T07:50:15.679Z,50.45
2023-05-20T07:51:18.456Z,50.35
2023-05-20T07:52:20.928Z,51.03
2023-05-20T07:53:23.983Z,51.04
2023-05-20T07:54:27.111Z,50.03
2023-05-20T07:55:30.892Z,49.23
2023-05-20T07:56:33.807Z,49.23
2023-05-20T07:57:36.445Z,49.12
2023-05-20T07:58:41.415Z,49.31
2023-05-20T07:59:44.432Z,49.24
2023-05-20T08:00:47.603Z,49.79
2023-05-20T08:01:49.915Z,49.92
2023-05-20T08:02:54.657Z,50.50
2023-05-20T08:03:59.285Z,50.16
2023-05-20T08:05:02.081Z,49.32
2023-05-20T08:06:05.471Z,49.58
2023-05-20T08:07:08.204Z,50.15
2023-05-20T08:08:12.544Z,48.64
2023-05-20T08:09:16.664Z,48.16
2023-05-20T08:10:20.900Z,47.57
2023-05-20T08:11:23.493Z,47.23
2023-05-20T08:12:26.074Z,47.07
2023-05-20T08:13:28.666Z,46.83
2023-05-20T08:14:31.734Z,46.92
2023-05-20T08:15:36.304Z,46.43
2023-05-20T08:16:40.049Z,46.21
2023-05-20T08:17:42.552Z,46.37
2023-05-20T08:18:45.577Z,45.19
2023-05-20T08:19:48.256Z,45.28
2023-05-20T08:20:51.738Z,44.72
2023-05-20T08:21:54.200Z,44.33
2023-05-20T08:22:57.280Z,44.33
2023-05-20T08:24:00.269Z,44.64
2023-05-20T08:25:04.097Z,44.45
2023-05-20T08:26:07.297Z,45.78
2023-05-20T08:27:09.894Z,45.39
2023-05-20T08:28:12.428Z,44.56
2023-05-20T08:29:15.148Z,43.75
2023-05-20T08:30:18.225Z,43.61
2023-05-20T08:31:20.700Z,43.91
2023-05-20T08:32:23.015Z,43.29
2023-05-20T08:33:26.019Z,43.35
2023-05-20T08:34:28.238Z,42.94
2023-05-20T08:35:31.699Z,43.26
2023-05-20T08:36:35.267Z,43.46
2023-05-20T08:37:38.835Z,43.70
2023-05-20T08:38:42.396Z,44.68
2023-05-20T08:39:46.216Z,43.71
2023-05-20T08:40:55.962Z,43.99
2023-05-20T08:41:59.827Z,43.46
2023-05-20T08:43:02.656Z,43.47
2023-05-20T08:44:05.748Z,42.16
2023-05-20T08:45:11.249Z,41.91
2023-05-20T08:46:16.902Z,42.24
2023-05-20T08:47:21.915Z,42.68
2023-05-20T08:48:27.315Z,43.47
2023-05-20T08:49:30.476Z,41.76
2023-05-20T08:50:33.526Z,42.35
2023-05-20T08:51:37.318Z,42.00
2023-05-20T08:52:46.161Z,41.84
2023-05-20T08:53:50.302Z,42.11
2023-05-20T08:54:53.722Z,41.05
2023-05-20T08:56:01.366Z,41.63
2023-05-20T08:57:05.329Z,41.63
2023-05-20T08:58:08.588Z,41.29
2023-05-20T08:59:11.553Z,41.20
2023-05-20T09:00:16.438Z,42.58
2023-05-20T09:01:22.451Z,43.56
2023-05-20T09:02:26.023Z,42.11
2023-05-20T09:03:29.640Z,41.13
2023-05-20T09:04:33.855Z,41.63
2023-05-20T09:05:36.916Z,41.67
2023-05-20T09:06:44.303Z,40.85
2023-05-20T09:07:46.939Z,40.62
2023-05-20T09:08:50.794Z,39.83
2023-05-20T09:09:53.574Z,40.30
2023-05-20T09:10:56.132Z,40.95
2023-05-20T09:11:59.662Z,41.28
2023-05-20T09:13:03.710Z,40.72
2023-05-20T09:14:06.742Z,40.71
2023-05-20T09:15:09.488Z,39.79
2023-05-20T09:16:12.913Z,39.54
2023-05-20T09:17:18.266Z,39.88
2023-05-20T09:18:20.905Z,38.95
2023-05-20T09:19:25.837Z,38.98
2023-05-20T09:20:29.415Z,38.80
2023-05-20T09:21:32.488Z,38.46
2023-05-20T09:22:35.068Z,38.78
2023-05-20T09:23:38.678Z,38.56
2023-05-20T09:24:41.987Z,38.71
2023-05-20T09:25:44.278Z,39.59
2023-05-20T09:26:47.363Z,39.61
2023-05-20T09:27:50.197Z,39.21
2023-05-20T09:28:53.250Z,38.85
2023-05-20T09:29:57.192Z,38.53
2023-05-20T09:31:01.097Z,38.45
2023-05-20T09:32:05.082Z,38.52
2023-05-20T09:33:08.731Z,38.43
2023-05-20T09:34:11.772Z,38.26
2023-05-20T09:35:16.287Z,38.01
2023-05-20T09:36:21.390Z,38.15
2023-05-20T09:37:25.941Z,36.82
2023-05-20T09:38:32.496Z,37.34
2023-05-20T09:39:38.873Z,37.75
2023-05-20T09:40:44.314Z,37.84
2023-05-20T09:41:52.277Z,38.64
2023-05-20T09:42:59.267Z,38.38
2023-05-20T09:44:03.765Z,38.32
2023-05-20T09:45:08.961Z,38.16
2023-05-20T09:46:11.418Z,37.94
2023-05-20T09:47:16.644Z,37.73
2023-05-20T09:48:19.404Z,38.00
2023-05-20T09:49:23.322Z,37.55
2023-05-20T09:50:26.956Z,38.10
2023-05-20T09:51:31.901Z,37.90
2023-05-20T09:52:43.773Z,38.16
2023-05-20T09:53:47.626Z,38.27
2023-05-20T09:54:51.063Z,37.77
2023-05-20T09:55:54.372Z,38.21
2023-05-20T09:57:08.678Z,38.09
2023-05-20T09:58:16.109Z,37.76
2023-05-20T09:59:22.594Z,37.77
2023-05-20T10:00:25.572Z,37.36
2023-05-20T10:01:29.120Z,37.92
2023-05-20T10:02:34.502Z,37.21
2023-05-20T10:03:37.924Z,36.60
2023-05-20T10:04:44.638Z,37.49
2023-05-20T10:06:06.827Z,37.35
2023-05-20T10:07:38.017Z,37.30
2023-05-20T10:08:46.039Z,37.32
2023-05-20T10:09:58.399Z,36.62
2023-05-20T10:11:14.243Z,37.44
2023-05-20T10:12:23.131Z,36.52
2023-05-20T10:13:44.846Z,37.27
2023-05-20T10:15:03.478Z,37.05
2023-05-20T10:16:31.068Z,37.43
2023-05-20T10:17:46.330Z,37.68
2023-05-20T10:19:10.088Z,37.95
2023-05-20T10:20:14.967Z,37.21
2023-05-20T10:21:21.510Z,37.31
2023-05-20T10:22:32.448Z,36.94
2023-05-20T10:23:36.204Z,37.07
2023-05-20T10:24:44.935Z,36.91
2023-05-20T10:25:54.091Z,36.95
2023-05-20T10:26:58.538Z,36.93
2023-05-20T10:28:08.067Z,36.79
2023-05-20T10:29:22.561Z,36.88
2023-05-20T10:30:25.113Z,36.27
2023-05-20T10:31:27.749Z,36.44
2023-05-20T10:32:32.459Z,36.36
2023-05-20T10:33:38.666Z,36.33
2023-05-20T10:34:48.478Z,36.33
2023-05-20T10:35:54.295Z,36.38
2023-05-20T10:36:58.894Z,35.88
2023-05-20T10:38:11.875Z,35.90
2023-05-20T10:39:17.223Z,35.56
2023-05-20T10:40:22.120Z,36.06
2023-05-20T10:41:28.578Z,35.67
2023-05-20T10:42:31.805Z,35.52
2023-05-20T10:43:34.250Z,35.11
2023-05-20T10:44:47.127Z,35.52
2023-05-20T10:45:53.093Z,35.78
2023-05-20T10:47:23.583Z,35.98
2023-05-20T10:48:08.181Z,36.23
2023-05-20T10:49:22.439Z,36.33
2023-05-20T10:51:43.421Z,35.90
2023-05-20T10:52:45.988Z,35.16
2023-05-20T10:53:52.140Z,35.46
2023-05-20T10:54:57.688Z,35.25
2023-05-20T10:56:00.077Z,35.24
2023-05-20T10:57:11.108Z,34.86
2023-05-20T10:58:15.422Z,34.86
2023-05-20T10:59:18.180Z,35.39
2023-05-20T11:00:21.154Z,35.01
2023-05-20T11:01:26.237Z,34.70
2023-05-20T11:02:28.988Z,34.89
2023-05-20T11:03:32.836Z,34.20
2023-05-20T11:04:36.650Z,33.59
2023-05-20T11:05:40.124Z,33.03
2023-05-20T11:06:53.249Z,33.29
2023-05-20T11:08:16.821Z,33.61
2023-05-20T11:09:12.382Z,33.50
2023-05-20T11:10:15.322Z,33.71
2023-05-20T11:11:17.654Z,34.42
2023-05-20T11:12:22.161Z,34.03
2023-05-20T11:13:24.907Z,33.07
2023-05-20T11:14:30.794Z,33.49
2023-05-20T11:15:36.099Z,33.16
2023-05-20T11:16:38.834Z,32.92
2023-05-20T11:17:55.672Z,32.91
2023-05-20T11:19:00.330Z,33.21
2023-05-20T11:20:04.634Z,33.48
2023-05-20T11:21:07.500Z,32.76
2023-05-20T11:22:10.348Z,32.98
2023-05-20T11:23:14.703Z,33.33
2023-05-20T11:24:26.949Z,33.20
2023-05-20T11:25:29.982Z,32.98
2023-05-20T11:26:32.789Z,33.27
2023-05-20T11:27:41.071Z,33.50
2023-05-20T11:28:43.724Z,33.43
2023-05-20T11:29:49.830Z,33.34
2023-05-20T11:30:52.817Z,34.11
2023-05-20T11:31:55.378Z,33.94
2023-05-20T11:33:00.804Z,33.16
2023-05-20T11:34:03.745Z,33.02
2023-05-20T11:35:08.493Z,32.93
2023-05-20T11:36:23.858Z,33.44
2023-05-20T11:37:19.579Z,32.66
2023-05-20T11:38:22.338Z,32.79
2023-05-20T11:39:26.862Z,32.93
2023-05-20T11:40:38.981Z,31.97
2023-05-20T11:41:36.199Z,32.40
2023-05-20T11:42:38.548Z,32.12
2023-05-20T11:43:42.205Z,32.57
2023-05-20T11:44:45.923Z,32.62
2023-05-20T11:45:54.815Z,32.24
2023-05-20T11:47:02.696Z,32.57
2023-05-20T11:48:06.526Z,32.25
2023-05-20T11:49:09.172Z,32.50
2023-05-20T11:50:18.630Z,32.55
2023-05-20T11:51:28.465Z,31.89
2023-05-20T11:52:34.492Z,31.81
2023-05-20T11:53:40.639Z,32.28
2023-05-20T11:54:43.366Z,31.83
2023-05-20T11:55:58.046Z,31.13
2023-05-20T11:57:00.744Z,31.28
2023-05-20T11:58:03.420Z,31.81
2023-05-20T11:59:08.937Z,32.25
2023-05-20T12:00:13.253Z,32.53
2023-05-20T12:01:22.520Z,31.82
2023-05-20T12:02:20.383Z,32.02
2023-05-20T12:03:23.029Z,31.78
2023-05-20T12:04:25.560Z,31.55
2023-05-20T12:05:28.061Z,31.87
2023-05-20T12:06:31.019Z,31.63
2023-05-20T12:07:33.375Z,32.00
2023-05-20T12:08:36.149Z,31.80
2023-05-20T12:09:38.370Z,31.65
2023-05-20T12:10:40.734Z,31.64
2023-05-20T12:11:44.601Z,31.94
2023-05-20T12:12:47.045Z,31.54
2023-05-20T12:13:50.844Z,31.11
2023-05-20T12:14:53.980Z,30.99
2023-05-20T12:15:56.657Z,30.77
2023-05-20T12:16:59.694Z,30.71
2023-05-20T12:18:02.991Z,31.29
2023-05-20T12:19:05.562Z,31.29
2023-05-20T12:20:09.764Z,30.96
2023-05-20T12:21:23.917Z,30.66
2023-05-20T12:22:27.698Z,31.39
2023-05-20T12:23:32.569Z,30.85
2023-05-20T12:24:34.971Z,30.04
2023-05-20T12:25:37.494Z,30.42
2023-05-20T12:26:40.753Z,30.67
2023-05-20T12:27:45.670Z,30.47
2023-05-20T12:28:48.295Z,30.32
2023-05-20T12:29:50.516Z,30.15
2023-05-20T12:30:53.352Z,29.55
2023-05-20T12:31:55.883Z,29.95
2023-05-20T12:32:58.478Z,30.28
2023-05-20T12:34:01.276Z,30.17
2023-05-20T12:35:04.742Z,30.87
2023-05-20T12:36:09.398Z,31.05
2023-05-20T12:37:11.913Z,31.40
2023-05-20T12:38:15.017Z,30.67
2023-05-20T12:39:19.159Z,30.99
2023-05-20T12:40:22.025Z,30.48
2023-05-20T12:41:24.308Z,30.57
2023-05-20T12:42:27.360Z,30.18
2023-05-20T12:43:30.318Z,29.33
2023-05-20T12:44:33.951Z,29.68
2023-05-20T12:45:37.272Z,29.27
2023-05-20T12:46:39.805Z,29.90
2023-05-20T12:47:42.592Z,29.41
2023-05-20T12:48:45.296Z,29.04
2023-05-20T12:49:47.893Z,29.04
2023-05-20T12:50:50.460Z,28.95
2023-05-20T12:51:52.842Z,29.08
2023-05-20T12:52:55.100Z,28.92
2023-05-20T12:53:57.581Z,28.91
2023-05-20T12:55:00.606Z,28.01
2023-05-20T12:56:03.839Z,28.59
2023-05-20T12:57:06.808Z,28.44
2023-05-20T12:58:09.062Z,28.64
2023-05-20T12:59:11.377Z,28.76
2023-05-20T13:00:15.154Z,28.85
2023-05-20T13:01:17.564Z,27.96
2023-05-20T13:02:20.680Z,27.48
2023-05-20T13:03:24.126Z,28.16
2023-05-20T13:04:27.515Z,27.22
2023-05-20T13:05:30.160Z,27.21
2023-05-20T13:06:35.214Z,27.21
2023-05-20T13:07:38.387Z,27.99
2023-05-20T13:08:41.136Z,27.19
2023-05-20T13:09:45.870Z,26.71
2023-05-20T13:10:49.102Z,26.38
2023-05-20T13:11:52.422Z,27.26
2023-05-20T13:12:56.346Z,27.38
2023-05-20T13:13:58.777Z,27.82
2023-05-20T13:15:01.301Z,28.19
2023-05-20T13:16:04.470Z,27.94
2023-05-20T13:17:07.113Z,28.03
2023-05-20T13:18:09.760Z,27.19
2023-05-20T13:19:12.662Z,26.92
2023-05-20T13:20:19.072Z,27.49
2023-05-20T13:21:21.573Z,27.12
2023-05-20T13:22:23.887Z,26.30
2023-05-20T13:23:27.059Z,26.71
2023-05-20T13:24:29.495Z,26.36
2023-05-20T13:25:31.721Z,25.97
2023-05-20T13:26:34.473Z,25.91
2023-05-20T13:27:37.624Z,26.85
2023-05-20T13:28:40.032Z,26.96
2023-05-20T13:29:43.846Z,26.69
2023-05-20T13:30:54.947Z,26.78
2023-05-20T13:31:58.837Z,26.90
2023-05-20T13:33:01.834Z,26.17
2023-05-20T13:34:05.671Z,26.46
2023-05-20T13:35:08.652Z,27.06
2023-05-20T13:36:13.177Z,26.41
2023-05-20T13:37:15.518Z,26.29
2023-05-20T13:38:18.039Z,26.52
2023-05-20T13:46:53.192Z,25.88
2023-05-20T13:47:55.824Z,24.56
2023-05-20T13:48:58.355Z,24.38
2023-05-20T13:50:03.054Z,24.06
2023-05-20T13:51:05.677Z,23.93
2023-05-20T13:52:09.104Z,24.00
2023-05-20T13:53:14.361Z,23.83